createdAt,value
2018-07-11T00:02:19.314Z,74.31
2018-07-11T00:04:50.019Z,73.96
2018-07-11T00:07:20.644Z,73.82
2018-07-11T00:10:06.877Z,73.90
2018-07-11T00:12:43.403Z,74.42
2018-07-11T00:15:13.944Z,74.63
2018-07-11T00:17:44.375Z,74.43
2018-07-11T00:20:14.992Z,74.53
2018-07-11T00:22:45.983Z,75.22
2018-07-11T00:25:16.691Z,75.51
2018-07-11T00:27:47.291Z,76.17
2018-07-11T00:30:18.152Z,76.79
2018-07-11T00:32:48.678Z,77.74
2018-07-11T00:35:19.309Z,77.89
2018-07-11T00:37:49.913Z,77.83
2018-07-11T00:40:20.628Z,78.50
2018-07-11T00:42:51.688Z,78.50
2018-07-11T00:45:22.334Z,78.08
2018-07-11T00:47:52.994Z,78.79
2018-07-11T00:50:23.483Z,79.44
2018-07-11T00:52:54.334Z,79.66
2018-07-11T00:55:25.173Z,80.05
2018-07-11T00:57:57.864Z,80.31
2018-07-11T01:00:28.392Z,80.48
2018-07-11T01:02:59.334Z,80.69
2018-07-11T01:05:29.939Z,80.69
2018-07-11T01:08:00.413Z,80.61
2018-07-11T01:10:31.026Z,80.81
2018-07-11T01:13:01.714Z,81.00
2018-07-11T01:15:32.195Z,81.97
2018-07-11T01:18:17.113Z,81.60
2018-07-11T01:20:47.674Z,82.14
2018-07-11T01:23:17.986Z,81.89
2018-07-11T01:25:48.588Z,81.90
2018-07-11T01:28:19.024Z,81.64
2018-07-11T01:30:49.871Z,81.99
2018-07-11T01:33:20.330Z,82.26
2018-07-11T01:35:50.937Z,81.44
2018-07-11T01:38:21.309Z,81.49
2018-07-11T01:40:52.072Z,82.54
2018-07-11T01:43:22.540Z,83.37
2018-07-11T01:45:53.113Z,83.73
2018-07-11T01:48:24.330Z,83.26
2018-07-11T01:50:55.074Z,83.93
2018-07-11T01:53:25.663Z,83.35
2018-07-11T01:55:56.591Z,82.25
2018-07-11T01:58:27.467Z,81.39
2018-07-11T02:00:58.414Z,82.16
2018-07-11T02:03:29.214Z,82.08
2018-07-11T02:05:59.851Z,82.35
2018-07-11T02:08:30.675Z,82.14
2018-07-11T02:11:01.456Z,82.61
2018-07-11T02:13:32.188Z,81.96
2018-07-11T02:16:03.161Z,82.79
2018-07-11T02:18:36.198Z,83.68
2018-07-11T02:21:08.082Z,83.61
2018-07-11T02:23:39.360Z,83.94
2018-07-11T02:26:10.248Z,84.02
2018-07-11T02:28:41.248Z,83.95
2018-07-11T02:31:12.080Z,84.31
2018-07-11T02:33:42.887Z,84.44
2018-07-11T02:36:13.404Z,84.38
2018-07-11T02:38:43.924Z,84.72
2018-07-11T02:41:14.803Z,84.56
2018-07-11T02:43:45.469Z,84.62
2018-07-11T02:46:16.244Z,84.34
2018-07-11T02:48:47.044Z,84.57
2018-07-11T02:51:17.749Z,85.27
2018-07-11T02:53:48.424Z,84.99
2018-07-11T02:56:19.915Z,85.54
2018-07-11T02:58:51.933Z,85.78
2018-07-11T03:01:22.419Z,85.15
2018-07-11T03:03:52.841Z,85.37
2018-07-11T03:06:23.318Z,85.02
2018-07-11T03:08:54.557Z,85.36
2018-07-11T03:11:25.313Z,85.56
2018-07-11T03:13:55.664Z,85.96
2018-07-11T03:16:26.146Z,86.11
2018-07-11T03:18:56.528Z,86.17
2018-07-11T03:21:27.076Z,85.62
2018-07-11T03:23:57.701Z,85.59
2018-07-11T03:26:28.154Z,85.65
2018-07-11T03:28:58.576Z,85.35
2018-07-11T03:31:30.253Z,83.99
2018-07-11T03:34:00.708Z,82.93
2018-07-11T03:36:31.323Z,81.05
2018-07-11T03:39:02.032Z,80.14
2018-07-11T03:41:32.910Z,78.55
2018-07-11T03:44:03.796Z,77.17
2018-07-11T03:46:34.490Z,76.14
2018-07-11T03:49:05.415Z,75.62
2018-07-11T03:51:36.087Z,74.45
2018-07-11T03:54:07.439Z,72.77
2018-07-11T03:56:37.976Z,71.73
2018-07-11T03:59:08.386Z,69.86
2018-07-11T04:01:39.025Z,67.96
2018-07-11T04:04:09.569Z,66.81
2018-07-11T04:06:39.953Z,66.78
2018-07-11T04:09:10.972Z,64.80
2018-07-11T04:11:41.674Z,64.47
2018-07-11T04:14:12.337Z,63.41
2018-07-11T04:16:42.765Z,62.07
2018-07-11T04:19:13.294Z,61.50
2018-07-11T04:21:43.659Z,60.37
2018-07-11T04:24:14.318Z,59.49
2018-07-11T04:26:44.921Z,58.83
2018-07-11T04:29:15.516Z,57.42
2018-07-11T04:31:46.215Z,55.45
2018-07-11T04:34:16.814Z,53.24
2018-07-11T04:36:47.744Z,53.40
2018-07-11T04:39:18.514Z,53.24
2018-07-11T04:41:49.141Z,53.69
2018-07-11T04:44:19.766Z,52.46
2018-07-11T04:46:50.688Z,52.88
2018-07-11T04:49:21.359Z,52.35
2018-07-11T04:51:52.671Z,49.85
2018-07-11T04:54:23.492Z,49.10
2018-07-11T04:56:54.349Z,48.37
2018-07-11T04:59:25.136Z,47.33
2018-07-11T05:01:55.812Z,46.60
2018-07-11T05:04:26.557Z,47.16
2018-07-11T05:06:57.054Z,46.05
2018-07-11T05:09:27.764Z,45.28
2018-07-11T05:11:58.297Z,44.13
2018-07-11T05:14:28.891Z,44.25
2018-07-11T05:16:59.414Z,46.05
2018-07-11T05:19:29.813Z,44.66
2018-07-11T05:22:00.425Z,44.63
2018-07-11T05:24:31.085Z,45.03
2018-07-11T05:27:01.577Z,43.86
2018-07-11T05:29:31.984Z,42.83
2018-07-11T05:32:02.517Z,42.27
2018-07-11T05:34:33.864Z,41.80
2018-07-11T05:37:05.270Z,42.24
2018-07-11T05:39:36.155Z,41.41
2018-07-11T05:42:06.671Z,40.22
2018-07-11T05:44:37.367Z,39.08
2018-07-11T05:47:08.405Z,40.27
2018-07-11T05:49:39.023Z,39.53
2018-07-11T05:52:09.485Z,39.63
2018-07-11T05:54:40.184Z,39.40
2018-07-11T05:57:10.596Z,39.14
2018-07-11T05:59:41.183Z,38.32
2018-07-11T06:02:11.740Z,37.76
2018-07-11T06:04:42.342Z,36.94
2018-07-11T06:07:12.818Z,37.42
2018-07-11T06:09:43.198Z,36.29
2018-07-11T06:12:13.578Z,37.33
2018-07-11T06:14:44.083Z,36.65
2018-07-11T06:17:14.653Z,36.13
2018-07-11T06:19:45.301Z,33.58
2018-07-11T06:22:15.764Z,34.79
2018-07-11T06:24:46.317Z,34.81
2018-07-11T06:27:17.156Z,35.42
2018-07-11T06:29:48.205Z,35.36
2018-07-11T06:32:18.646Z,34.99
2018-07-11T06:34:49.142Z,35.54
2018-07-11T06:37:19.576Z,33.08
2018-07-11T06:39:50.044Z,33.71
2018-07-11T06:42:20.582Z,33.12
2018-07-11T06:44:51.346Z,33.99
2018-07-11T06:47:22.189Z,33.15
2018-07-11T06:49:52.972Z,31.35
2018-07-11T06:52:23.365Z,31.89
2018-07-11T06:54:53.797Z,31.40
2018-07-11T06:57:24.410Z,32.25
2018-07-11T06:59:54.889Z,30.82
2018-07-11T07:02:25.351Z,31.62
2018-07-11T07:04:55.698Z,31.08
2018-07-11T07:07:26.405Z,31.13
2018-07-11T07:09:57.141Z,31.12
2018-07-11T07:12:27.811Z,31.20
2018-07-11T07:14:58.140Z,29.87
2018-07-11T07:17:28.564Z,28.24
2018-07-11T07:19:58.972Z,28.71
2018-07-11T07:22:29.426Z,29.92
2018-07-11T07:25:00.217Z,30.89
2018-07-11T07:27:30.723Z,29.93
2018-07-11T07:30:01.244Z,29.35
2018-07-11T07:32:31.861Z,30.04
2018-07-11T07:35:02.405Z,29.36
2018-07-11T07:37:32.833Z,32.08
2018-07-11T07:40:03.510Z,29.61
2018-07-11T07:42:34.026Z,29.27
2018-07-11T07:45:04.903Z,27.04
2018-07-11T07:47:40.351Z,28.83
2018-07-11T07:50:10.909Z,29.28
2018-07-11T07:52:42.229Z,28.39
2018-07-11T07:55:12.918Z,27.21
2018-07-11T07:57:43.901Z,29.95
2018-07-11T08:00:14.572Z,29.67
2018-07-11T08:02:45.964Z,26.57
2018-07-11T08:05:17.135Z,29.14
2018-07-11T08:07:47.759Z,28.66
2018-07-11T08:10:18.202Z,27.58
2018-07-11T08:12:48.686Z,27.93
2018-07-11T08:15:19.241Z,26.20
2018-07-11T08:17:49.645Z,24.77
2018-07-11T08:20:20.503Z,27.20
2018-07-11T08:23:32.046Z,26.07
2018-07-11T08:26:14.155Z,25.23
2018-07-11T08:30:00.054Z,26.41
2018-07-11T08:32:46.136Z,26.95
2018-07-11T08:35:32.590Z,25.03
2018-07-11T08:38:17.260Z,25.97
2018-07-11T08:41:00.939Z,25.51
2018-07-11T08:43:47.215Z,25.57
2018-07-11T08:46:29.946Z,25.23
2018-07-11T08:49:21.974Z,23.46
2018-07-11T08:52:17.181Z,25.41
2018-07-11T08:55:01.344Z,27.46
2018-07-11T08:57:42.949Z,26.48
2018-07-11T09:01:22.884Z,26.81
2018-07-11T09:04:04.479Z,25.17
2018-07-11T09:09:01.212Z,26.82
2018-07-11T09:12:45.275Z,26.79
2018-07-11T09:17:31.061Z,24.72
2018-07-11T09:20:12.547Z,24.78
2018-07-11T09:27:06.327Z,24.61
2018-07-11T09:29:37.025Z,22.86
2018-07-11T09:32:07.744Z,21.84
2018-07-11T09:34:38.073Z,23.58
2018-07-11T09:37:08.651Z,23.90
2018-07-11T09:39:39.264Z,23.72
2018-07-11T09:42:09.960Z,24.42
2018-07-11T09:44:40.633Z,21.77
2018-07-11T09:47:16.359Z,22.26
2018-07-11T09:49:47.228Z,24.23
2018-07-11T09:52:17.881Z,24.52
2018-07-11T09:54:48.527Z,25.06
2018-07-11T09:57:20.194Z,24.08
2018-07-11T09:59:51.165Z,24.56
2018-07-11T10:02:21.880Z,22.91
2018-07-11T10:04:53.278Z,22.84
2018-07-11T10:07:24.801Z,24.88
2018-07-11T10:09:55.568Z,24.66
2018-07-11T10:12:26.010Z,23.61
2018-07-11T10:14:56.932Z,23.02
2018-07-11T10:17:27.867Z,26.46
2018-07-11T10:19:58.384Z,24.18
2018-07-11T10:22:29.202Z,24.55
2018-07-11T10:25:00.095Z,24.32
2018-07-11T10:27:30.839Z,24.97
2018-07-11T10:30:01.540Z,24.17
2018-07-11T10:32:32.565Z,25.16
2018-07-11T10:35:03.335Z,23.09
2018-07-11T10:37:34.161Z,22.75
2018-07-11T10:40:04.846Z,23.62
2018-07-11T10:42:35.504Z,23.87
2018-07-11T10:45:06.718Z,25.15
2018-07-11T10:47:37.588Z,23.41
2018-07-11T10:50:08.382Z,25.10
2018-07-11T10:52:40.027Z,23.55
2018-07-11T10:55:10.640Z,24.07
2018-07-11T10:57:41.445Z,22.87
2018-07-11T11:00:12.050Z,21.47
2018-07-11T11:02:42.488Z,22.24
2018-07-11T11:05:13.139Z,23.12
2018-07-11T11:07:43.776Z,24.37
2018-07-11T11:10:14.226Z,23.87
2018-07-11T11:12:45.272Z,22.26
2018-07-11T11:15:15.872Z,21.81
2018-07-11T11:17:47.505Z,21.59
2018-07-11T11:20:18.116Z,23.03
2018-07-11T11:22:48.713Z,22.79
2018-07-11T11:25:20.096Z,22.62
2018-07-11T11:27:50.593Z,23.62
2018-07-11T11:30:21.412Z,23.73
2018-07-11T11:32:52.011Z,25.89
2018-07-11T11:35:22.842Z,26.29
2018-07-11T11:37:53.581Z,26.58
2018-07-11T11:40:25.129Z,27.99
2018-07-11T11:42:55.784Z,27.98
2018-07-11T11:45:26.520Z,29.06
2018-07-11T11:47:59.199Z,29.06
2018-07-11T11:50:30.324Z,29.15
2018-07-11T11:53:01.556Z,29.14
2018-07-11T11:55:31.944Z,28.50
2018-07-11T11:58:02.591Z,28.29
2018-07-11T12:00:32.994Z,29.06
2018-07-11T12:03:03.469Z,30.03
2018-07-11T12:05:33.994Z,29.09
2018-07-11T12:08:04.621Z,29.74
2018-07-11T12:10:35.149Z,29.10
2018-07-11T12:13:06.152Z,30.60
2018-07-11T12:15:36.830Z,29.45
2018-07-11T12:18:07.453Z,29.30
2018-07-11T12:20:38.058Z,27.82
2018-07-11T12:23:08.682Z,28.67
2018-07-11T12:25:48.972Z,29.11
2018-07-11T12:28:19.689Z,28.90
2018-07-11T12:30:50.234Z,28.25
2018-07-11T12:33:21.901Z,29.13
2018-07-11T12:35:52.467Z,30.15
2018-07-11T12:38:23.047Z,30.77
2018-07-11T12:40:53.967Z,32.13
2018-07-11T12:43:24.918Z,31.55
2018-07-11T12:45:56.440Z,30.65
2018-07-11T12:48:31.842Z,31.46
2018-07-11T12:51:02.628Z,31.28
2018-07-11T12:53:33.454Z,30.25
2018-07-11T12:56:04.071Z,31.20
2018-07-11T12:58:34.656Z,31.08
2018-07-11T13:01:05.295Z,30.38
2018-07-11T13:03:36.012Z,30.71
2018-07-11T13:06:07.458Z,31.32
2018-07-11T13:08:40.651Z,31.27
2018-07-11T13:11:11.136Z,31.14
2018-07-11T13:13:41.722Z,31.73
2018-07-11T13:16:12.349Z,31.90
2018-07-11T13:18:43.366Z,31.68
2018-07-11T13:21:14.118Z,31.87
2018-07-11T13:23:44.724Z,31.37
2018-07-11T13:26:15.433Z,31.92
2018-07-11T13:28:46.201Z,31.88
2018-07-11T13:31:18.871Z,32.64
2018-07-11T13:33:49.651Z,31.73
2018-07-11T13:36:20.456Z,31.77
2018-07-11T13:38:51.375Z,31.51
2018-07-11T13:41:22.934Z,30.93
2018-07-11T13:43:54.338Z,31.10
2018-07-11T13:46:25.013Z,32.49
2018-07-11T13:48:55.551Z,32.67
2018-07-11T13:51:26.179Z,32.47
2018-07-11T13:53:57.115Z,32.99
2018-07-11T13:56:27.656Z,31.17
2018-07-11T13:58:58.573Z,31.42
2018-07-11T14:01:29.352Z,31.73
2018-07-11T14:03:59.948Z,32.50
2018-07-11T14:06:30.729Z,32.24
2018-07-11T14:09:01.700Z,31.60
2018-07-11T14:11:32.507Z,32.40
2018-07-11T14:14:03.180Z,32.38
2018-07-11T14:16:34.774Z,33.13
2018-07-11T14:19:05.524Z,33.72
2018-07-11T14:21:35.913Z,33.41
2018-07-11T14:24:06.485Z,33.46
2018-07-11T14:26:37.291Z,32.86
2018-07-11T14:29:08.051Z,33.43
2018-07-11T14:31:38.857Z,33.56
2018-07-11T14:34:10.108Z,32.73
2018-07-11T14:36:40.607Z,32.58
2018-07-11T14:39:11.519Z,33.00
2018-07-11T14:41:41.978Z,32.17
2018-07-11T14:44:12.672Z,31.72
2018-07-11T14:46:43.565Z,30.36
2018-07-11T14:49:16.260Z,30.49
2018-07-11T14:51:46.945Z,29.52
2018-07-11T14:54:17.662Z,27.95
2018-07-11T14:56:48.800Z,29.94
2018-07-11T14:59:19.385Z,31.49
2018-07-11T15:01:50.108Z,32.35
2018-07-11T15:04:20.580Z,33.02
2018-07-11T15:06:51.423Z,33.45
2018-07-11T15:09:22.304Z,33.02
2018-07-11T15:11:52.955Z,31.73
2018-07-11T15:14:23.472Z,32.67
2018-07-11T15:16:54.032Z,32.71
2018-07-11T15:19:24.469Z,31.45
2018-07-11T15:21:54.978Z,31.67
2018-07-11T15:24:25.786Z,31.82
2018-07-11T15:26:57.067Z,31.69
2018-07-11T15:29:27.826Z,31.41
2018-07-11T15:32:01.158Z,31.08
2018-07-11T15:34:31.896Z,31.53
2018-07-11T15:37:02.557Z,31.43
2018-07-11T15:39:33.166Z,31.29
2018-07-11T15:42:06.210Z,31.94
2018-07-11T15:44:36.760Z,31.63
2018-07-11T15:47:08.095Z,31.56
2018-07-11T15:49:39.906Z,31.67
2018-07-11T15:52:11.410Z,31.54
2018-07-11T15:54:42.159Z,31.36
2018-07-11T15:57:13.915Z,31.64
2018-07-11T15:59:55.638Z,31.72
2018-07-11T16:02:26.554Z,31.84
2018-07-11T16:04:57.255Z,31.95
2018-07-11T16:07:30.289Z,32.03
2018-07-11T16:10:00.993Z,31.93
2018-07-11T16:12:31.674Z,31.35
2018-07-11T16:15:02.481Z,32.38
2018-07-11T16:17:33.036Z,31.89
2018-07-11T16:20:03.864Z,30.87
2018-07-11T16:22:34.775Z,31.49
2018-07-11T16:25:05.698Z,32.54
2018-07-11T16:27:36.540Z,32.83
2018-07-11T16:30:07.384Z,33.30
2018-07-11T16:32:37.980Z,32.20
2018-07-11T16:35:08.540Z,32.03
2018-07-11T16:37:39.048Z,31.83
2018-07-11T16:40:10.167Z,32.76
2018-07-11T16:42:40.961Z,33.04
2018-07-11T16:45:11.820Z,32.45
2018-07-11T16:47:42.629Z,33.56
2018-07-11T16:50:13.204Z,32.53
2018-07-11T16:52:43.904Z,32.33
2018-07-11T16:55:14.567Z,33.97
2018-07-11T16:57:47.691Z,34.19
2018-07-11T17:00:22.173Z,35.22
2018-07-11T17:03:07.804Z,34.88
2018-07-11T17:05:50.468Z,35.60
2018-07-11T17:08:30.508Z,35.90
2018-07-11T17:11:38.120Z,35.70
2018-07-11T17:14:08.876Z,35.86
2018-07-11T17:16:47.296Z,36.17
2018-07-11T17:19:29.895Z,37.26
2018-07-11T17:22:04.459Z,37.15
2018-07-11T17:24:39.817Z,37.33
2018-07-11T17:27:10.386Z,37.83
2018-07-11T17:29:42.796Z,37.38
2018-07-11T17:32:14.263Z,37.83
2018-07-11T17:34:44.925Z,37.89
2018-07-11T17:37:17.569Z,38.51
2018-07-11T17:39:54.332Z,39.39
2018-07-11T17:42:27.765Z,39.41
2018-07-11T17:45:11.805Z,39.24
2018-07-11T17:49:00.112Z,39.68
2018-07-11T17:52:15.242Z,39.94
2018-07-11T17:54:58.194Z,39.59
2018-07-11T17:58:35.963Z,39.86
2018-07-11T18:01:08.034Z,40.09
2018-07-11T18:03:44.870Z,41.02
2018-07-11T18:06:36.522Z,41.33
2018-07-11T18:09:10.208Z,41.16
2018-07-11T18:12:00.014Z,42.07
2018-07-11T18:15:04.069Z,42.07
2018-07-11T18:17:44.422Z,42.68
2018-07-11T18:22:47.536Z,41.51
2018-07-11T18:27:36.254Z,41.60
2018-07-11T18:30:27.672Z,41.87
2018-07-11T18:33:16.821Z,40.80
2018-07-11T18:35:53.823Z,42.23
2018-07-11T18:38:56.436Z,42.46
2018-07-11T18:41:39.162Z,42.76
2018-07-11T18:44:56.382Z,43.24
2018-07-11T18:47:46.802Z,42.54
2018-07-11T18:50:28.166Z,42.54
2018-07-11T18:53:04.621Z,42.80
2018-07-11T18:55:54.259Z,43.09
2018-07-11T18:58:37.504Z,43.44
2018-07-11T19:01:14.176Z,43.50
2018-07-11T19:04:22.093Z,43.48
2018-07-11T19:08:19.514Z,43.59
2018-07-11T19:10:57.532Z,43.94
2018-07-11T19:13:34.746Z,43.50
2018-07-11T19:16:19.796Z,43.78
2018-07-11T19:19:01.674Z,44.22
2018-07-11T19:22:08.756Z,44.80
2018-07-11T19:24:52.903Z,44.71
2018-07-11T19:27:49.149Z,44.80
2018-07-11T19:30:35.340Z,44.48
2018-07-11T19:34:20.098Z,44.91
2018-07-11T19:37:02.576Z,45.77
2018-07-11T19:41:51.747Z,45.87
2018-07-11T19:44:31.841Z,46.64
2018-07-11T19:47:13.221Z,47.39
2018-07-11T19:49:55.526Z,47.61
2018-07-11T19:52:36.703Z,49.02
2018-07-11T19:55:15.424Z,48.79
2018-07-11T19:57:46.083Z,48.78
2018-07-11T20:00:16.684Z,48.21
2018-07-11T20:02:47.302Z,48.49
2018-07-11T20:05:18.259Z,48.38
2018-07-11T20:07:48.962Z,48.21
2018-07-11T20:10:19.681Z,48.21
2018-07-11T20:12:51.124Z,48.76
2018-07-11T20:15:21.812Z,49.11
2018-07-11T20:17:52.472Z,49.35
2018-07-11T20:20:23.339Z,50.46
2018-07-11T20:22:53.828Z,51.05
2018-07-11T20:25:24.757Z,51.56
2018-07-11T20:27:55.307Z,51.83
2018-07-11T20:30:25.963Z,52.52
2018-07-11T20:32:56.484Z,52.83
2018-07-11T20:35:26.949Z,53.69
2018-07-11T20:37:57.877Z,53.57
2018-07-11T20:40:28.632Z,53.85
2018-07-11T20:42:59.339Z,54.15
2018-07-11T20:45:30.053Z,54.48
2018-07-11T20:48:00.746Z,54.98
2018-07-11T20:50:31.588Z,55.09
2018-07-11T20:53:02.385Z,55.44
2018-07-11T20:55:33.280Z,55.58
2018-07-11T20:59:13.584Z,55.65
2018-07-11T21:01:54.351Z,56.38
2018-07-11T21:06:38.345Z,55.97
2018-07-11T21:11:37.632Z,57.11
2018-07-11T21:15:27.707Z,56.83
2018-07-11T21:18:12.621Z,57.18
2018-07-11T21:20:43.172Z,57.61
2018-07-11T21:23:13.658Z,57.55
2018-07-11T21:25:44.927Z,57.42
2018-07-11T21:28:15.345Z,57.05
2018-07-11T21:30:45.777Z,56.78
2018-07-11T21:33:16.230Z,58.10
2018-07-11T21:35:46.522Z,57.91
2018-07-11T21:38:17.221Z,57.93
2018-07-11T21:40:47.597Z,58.17
2018-07-11T21:43:18.366Z,58.46
2018-07-11T21:45:51.311Z,57.46
2018-07-11T21:48:22.001Z,57.66
2018-07-11T21:50:52.538Z,58.66
2018-07-11T21:53:23.111Z,59.92
2018-07-11T21:55:53.426Z,60.20
2018-07-11T21:58:24.039Z,61.16
2018-07-11T22:00:56.727Z,62.17
2018-07-11T22:03:27.331Z,63.07
2018-07-11T22:05:58.144Z,63.35
2018-07-11T22:08:29.341Z,62.12
2018-07-11T22:11:00.195Z,62.50
2018-07-11T22:13:30.720Z,62.18
2018-07-11T22:16:01.282Z,62.82
2018-07-11T22:18:33.674Z,63.23
2018-07-11T22:21:03.262Z,63.52
2018-07-11T22:23:31.736Z,63.61
2018-07-11T22:26:00.220Z,63.35
2018-07-11T22:28:29.428Z,63.02
2018-07-11T22:30:58.104Z,64.61
2018-07-11T22:33:26.824Z,65.45
2018-07-11T22:35:55.515Z,65.13
2018-07-11T22:38:24.051Z,64.84
2018-07-11T22:40:53.982Z,65.93
2018-07-11T22:43:22.502Z,65.37
2018-07-11T22:45:51.046Z,65.96
2018-07-11T22:48:19.464Z,66.65
2018-07-11T22:50:47.988Z,65.91
2018-07-11T22:53:16.683Z,66.19
2018-07-11T22:55:45.361Z,66.84
2018-07-11T22:58:13.773Z,65.75
2018-07-11T23:00:42.220Z,65.51
2018-07-11T23:03:11.286Z,64.16
2018-07-11T23:05:39.697Z,64.86
2018-07-11T23:08:08.327Z,64.96
2018-07-11T23:10:36.946Z,64.24
2018-07-11T23:13:06.262Z,64.36
2018-07-11T23:15:34.840Z,64.58
2018-07-11T23:18:03.528Z,64.64
2018-07-11T23:20:32.263Z,66.15
2018-07-11T23:23:00.726Z,67.04
2018-07-11T23:25:29.306Z,67.08
2018-07-11T23:27:57.648Z,66.57
2018-07-11T23:30:26.189Z,67.68
2018-07-11T23:32:54.816Z,67.68
2018-07-11T23:35:23.400Z,67.04
2018-07-11T23:37:52.187Z,67.33
2018-07-11T23:40:20.871Z,67.61
2018-07-11T23:42:49.466Z,67.92
2018-07-11T23:45:17.934Z,67.57
2018-07-11T23:47:46.719Z,67.00
2018-07-11T23:50:15.308Z,67.12
2018-07-11T23:52:43.888Z,67.51
2018-07-11T23:55:12.593Z,67.29
2018-07-11T23:57:41.260Z,68.37
